sensor_id;sensor_type;location;lat;lon;timestamp;P1;durP1;ratioP1;P2;durP2;ratioP2
47523;SDS011;33253;42.144;25.884;2023-05-10T00:00:36;11.98;;;7.13;;
47523;SDS011;33253;42.144;25.884;2023-05-10T00:03:01;10.80;;;6.78;;
47523;SDS011;33253;42.144;25.884;2023-05-10T00:05:29;12.10;;;6.38;;
47523;SDS011;33253;42.144;25.884;2023-05-10T00:07:56;9.02;;;5.80;;
47523;SDS011;33253;42.144;25.884;2023-05-10T00:10:22;10.95;;;6.45;;
47523;SDS011;33253;42.144;25.884;2023-05-10T00:12:47;12.25;;;5.82;;
47523;SDS011;33253;42.144;25.884;2023-05-10T00:15:13;9.82;;;5.78;;
47523;SDS011;33253;42.144;25.884;2023-05-10T00:17:38;11.13;;;6.00;;
47523;SDS011;33253;42.144;25.884;2023-05-10T00:20:04;10.07;;;5.75;;
47523;SDS011;33253;42.144;25.884;2023-05-10T00:22:30;12.32;;;5.90;;
47523;SDS011;33253;42.144;25.884;2023-05-10T00:24:56;8.98;;;5.47;;
47523;SDS011;33253;42.144;25.884;2023-05-10T00:27:22;9.70;;;6.38;;
47523;SDS011;33253;42.144;25.884;2023-05-10T00:29:47;8.88;;;5.28;;
47523;SDS011;33253;42.144;25.884;2023-05-10T00:32:13;9.55;;;5.30;;
47523;SDS011;33253;42.144;25.884;2023-05-10T00:34:39;10.85;;;6.60;;
47523;SDS011;33253;42.144;25.884;2023-05-10T00:37:04;11.10;;;7.78;;
47523;SDS011;33253;42.144;25.884;2023-05-10T00:39:30;9.65;;;5.93;;
47523;SDS011;33253;42.144;25.884;2023-05-10T00:41:56;8.65;;;6.45;;
47523;SDS011;33253;42.144;25.884;2023-05-10T00:44:21;9.75;;;6.15;;
47523;SDS011;33253;42.144;25.884;2023-05-10T00:46:47;12.63;;;6.15;;
47523;SDS011;33253;42.144;25.884;2023-05-10T00:49:13;10.82;;;6.60;;
47523;SDS011;33253;42.144;25.884;2023-05-10T00:51:39;8.75;;;5.90;;
47523;SDS011;33253;42.144;25.884;2023-05-10T00:54:04;10.10;;;6.00;;
47523;SDS011;33253;42.144;25.884;2023-05-10T00:56:30;11.98;;;6.05;;
47523;SDS011;33253;42.144;25.884;2023-05-10T00:58:56;9.85;;;5.80;;
47523;SDS011;33253;42.144;25.884;2023-05-10T01:01:22;10.48;;;6.13;;
47523;SDS011;33253;42.144;25.884;2023-05-10T01:03:48;14.07;;;6.65;;
47523;SDS011;33253;42.144;25.884;2023-05-10T01:06:13;11.32;;;6.95;;
47523;SDS011;33253;42.144;25.884;2023-05-10T01:08:39;11.93;;;7.35;;
47523;SDS011;33253;42.144;25.884;2023-05-10T01:11:05;11.10;;;6.40;;
47523;SDS011;33253;42.144;25.884;2023-05-10T01:16:04;10.95;;;6.38;;
47523;SDS011;33253;42.144;25.884;2023-05-10T01:18:31;11.23;;;7.03;;
47523;SDS011;33253;42.144;25.884;2023-05-10T01:27:12;13.10;;;6.70;;
47523;SDS011;33253;42.144;25.884;2023-05-10T01:38:44;11.77;;;7.07;;
47523;SDS011;33253;42.144;25.884;2023-05-10T01:44:24;13.13;;;7.18;;
47523;SDS011;33253;42.144;25.884;2023-05-10T01:47:09;14.05;;;7.93;;
47523;SDS011;33253;42.144;25.884;2023-05-10T01:49:38;13.18;;;8.13;;
47523;SDS011;33253;42.144;25.884;2023-05-10T01:52:08;13.45;;;7.60;;
47523;SDS011;33253;42.144;25.884;2023-05-10T01:54:38;11.50;;;8.18;;
47523;SDS011;33253;42.144;25.884;2023-05-10T01:57:06;12.73;;;7.50;;
47523;SDS011;33253;42.144;25.884;2023-05-10T01:59:35;12.82;;;7.97;;
47523;SDS011;33253;42.144;25.884;2023-05-10T02:02:06;12.93;;;7.80;;
47523;SDS011;33253;42.144;25.884;2023-05-10T02:04:36;13.15;;;7.70;;
47523;SDS011;33253;42.144;25.884;2023-05-10T02:07:03;11.93;;;7.07;;
47523;SDS011;33253;42.144;25.884;2023-05-10T02:09:30;11.75;;;6.80;;
47523;SDS011;33253;42.144;25.884;2023-05-10T02:11:58;9.30;;;6.88;;
47523;SDS011;33253;42.144;25.884;2023-05-10T02:14:27;15.13;;;7.75;;
47523;SDS011;33253;42.144;25.884;2023-05-10T02:16:55;11.13;;;7.18;;
47523;SDS011;33253;42.144;25.884;2023-05-10T02:19:23;12.55;;;7.32;;
47523;SDS011;33253;42.144;25.884;2023-05-10T02:21:50;10.45;;;6.88;;
47523;SDS011;33253;42.144;25.884;2023-05-10T02:24:16;12.30;;;6.82;;
47523;SDS011;33253;42.144;25.884;2023-05-10T02:26:44;9.55;;;7.03;;
47523;SDS011;33253;42.144;25.884;2023-05-10T02:29:12;11.15;;;7.03;;
47523;SDS011;33253;42.144;25.884;2023-05-10T02:31:39;9.65;;;6.18;;
47523;SDS011;33253;42.144;25.884;2023-05-10T02:34:08;10.13;;;6.55;;
47523;SDS011;33253;42.144;25.884;2023-05-10T02:36:36;12.13;;;6.10;;
47523;SDS011;33253;42.144;25.884;2023-05-10T02:39:03;11.82;;;7.00;;
47523;SDS011;33253;42.144;25.884;2023-05-10T02:41:30;12.68;;;7.40;;
47523;SDS011;33253;42.144;25.884;2023-05-10T02:43:59;11.90;;;6.25;;
47523;SDS011;33253;42.144;25.884;2023-05-10T02:46:26;14.95;;;7.35;;
47523;SDS011;33253;42.144;25.884;2023-05-10T02:48:51;11.35;;;6.68;;
47523;SDS011;33253;42.144;25.884;2023-05-10T02:51:18;10.00;;;6.53;;
47523;SDS011;33253;42.144;25.884;2023-05-10T02:53:46;13.32;;;8.43;;
47523;SDS011;33253;42.144;25.884;2023-05-10T02:56:15;14.13;;;6.55;;
47523;SDS011;33253;42.144;25.884;2023-05-10T02:58:48;14.52;;;6.72;;
47523;SDS011;33253;42.144;25.884;2023-05-10T03:01:14;9.85;;;6.60;;
47523;SDS011;33253;42.144;25.884;2023-05-10T03:03:40;15.27;;;6.93;;
47523;SDS011;33253;42.144;25.884;2023-05-10T03:06:05;9.23;;;6.20;;
47523;SDS011;33253;42.144;25.884;2023-05-10T03:08:31;10.50;;;6.00;;
47523;SDS011;33253;42.144;25.884;2023-05-10T03:11:14;9.95;;;6.00;;
47523;SDS011;33253;42.144;25.884;2023-05-10T03:16:46;11.65;;;6.25;;
47523;SDS011;33253;42.144;25.884;2023-05-10T03:21:49;9.57;;;5.72;;
47523;SDS011;33253;42.144;25.884;2023-05-10T03:24:18;10.65;;;5.65;;
47523;SDS011;33253;42.144;25.884;2023-05-10T03:26:46;10.60;;;5.97;;
47523;SDS011;33253;42.144;25.884;2023-05-10T03:29:13;11.80;;;6.05;;
47523;SDS011;33253;42.144;25.884;2023-05-10T03:31:40;11.23;;;6.18;;
47523;SDS011;33253;42.144;25.884;2023-05-10T03:34:06;12.40;;;6.90;;
47523;SDS011;33253;42.144;25.884;2023-05-10T03:36:32;8.32;;;6.07;;
47523;SDS011;33253;42.144;25.884;2023-05-10T03:38:57;10.82;;;6.75;;
47523;SDS011;33253;42.144;25.884;2023-05-10T03:41:23;11.20;;;6.68;;
47523;SDS011;33253;42.144;25.884;2023-05-10T03:43:48;10.77;;;6.65;;
47523;SDS011;33253;42.144;25.884;2023-05-10T03:46:14;10.05;;;5.70;;
47523;SDS011;33253;42.144;25.884;2023-05-10T03:48:39;13.18;;;6.47;;
47523;SDS011;33253;42.144;25.884;2023-05-10T03:51:05;10.73;;;6.13;;
47523;SDS011;33253;42.144;25.884;2023-05-10T03:53:30;9.20;;;6.38;;
47523;SDS011;33253;42.144;25.884;2023-05-10T03:55:55;9.55;;;6.07;;
47523;SDS011;33253;42.144;25.884;2023-05-10T03:58:21;10.15;;;5.40;;
47523;SDS011;33253;42.144;25.884;2023-05-10T04:00:47;10.07;;;5.97;;
47523;SDS011;33253;42.144;25.884;2023-05-10T04:03:12;8.48;;;5.80;;
47523;SDS011;33253;42.144;25.884;2023-05-10T04:05:38;12.20;;;6.07;;
47523;SDS011;33253;42.144;25.884;2023-05-10T04:08:04;10.07;;;6.10;;
47523;SDS011;33253;42.144;25.884;2023-05-10T04:10:30;12.73;;;7.25;;
47523;SDS011;33253;42.144;25.884;2023-05-10T04:12:55;8.80;;;6.45;;
47523;SDS011;33253;42.144;25.884;2023-05-10T04:15:21;10.20;;;6.32;;
47523;SDS011;33253;42.144;25.884;2023-05-10T04:17:47;15.02;;;6.97;;
47523;SDS011;33253;42.144;25.884;2023-05-10T04:20:12;10.25;;;6.45;;
47523;SDS011;33253;42.144;25.884;2023-05-10T04:22:38;11.35;;;6.47;;
47523;SDS011;33253;42.144;25.884;2023-05-10T04:25:05;9.88;;;5.85;;
47523;SDS011;33253;42.144;25.884;2023-05-10T04:27:31;10.50;;;6.30;;
47523;SDS011;33253;42.144;25.884;2023-05-10T04:29:56;9.85;;;6.18;;
47523;SDS011;33253;42.144;25.884;2023-05-10T04:32:22;10.85;;;6.70;;
47523;SDS011;33253;42.144;25.884;2023-05-10T04:34:47;10.95;;;5.38;;
47523;SDS011;33253;42.144;25.884;2023-05-10T04:37:13;11.10;;;6.15;;
47523;SDS011;33253;42.144;25.884;2023-05-10T04:39:38;14.98;;;6.43;;
47523;SDS011;33253;42.144;25.884;2023-05-10T04:42:04;13.30;;;6.53;;
47523;SDS011;33253;42.144;25.884;2023-05-10T04:44:30;11.98;;;6.25;;
47523;SDS011;33253;42.144;25.884;2023-05-10T04:46:59;9.43;;;5.57;;
47523;SDS011;33253;42.144;25.884;2023-05-10T04:49:25;10.70;;;5.93;;
47523;SDS011;33253;42.144;25.884;2023-05-10T04:51:50;14.07;;;6.63;;
47523;SDS011;33253;42.144;25.884;2023-05-10T04:54:16;9.82;;;5.63;;
47523;SDS011;33253;42.144;25.884;2023-05-10T04:56:41;10.15;;;6.00;;
47523;SDS011;33253;42.144;25.884;2023-05-10T04:59:07;10.10;;;6.10;;
47523;SDS011;33253;42.144;25.884;2023-05-10T05:01:32;10.30;;;5.90;;
47523;SDS011;33253;42.144;25.884;2023-05-10T05:03:58;10.23;;;5.80;;
47523;SDS011;33253;42.144;25.884;2023-05-10T05:06:24;10.13;;;5.78;;
47523;SDS011;33253;42.144;25.884;2023-05-10T05:08:50;8.13;;;5.43;;
47523;SDS011;33253;42.144;25.884;2023-05-10T05:11:15;9.30;;;5.50;;
47523;SDS011;33253;42.144;25.884;2023-05-10T05:13:42;8.02;;;5.40;;
47523;SDS011;33253;42.144;25.884;2023-05-10T05:16:07;12.88;;;6.55;;
47523;SDS011;33253;42.144;25.884;2023-05-10T05:18:33;10.25;;;6.22;;
47523;SDS011;33253;42.144;25.884;2023-05-10T05:20:58;11.02;;;6.10;;
47523;SDS011;33253;42.144;25.884;2023-05-10T05:23:24;16.27;;;5.93;;
47523;SDS011;33253;42.144;25.884;2023-05-10T05:25:51;14.20;;;6.18;;
47523;SDS011;33253;42.144;25.884;2023-05-10T05:28:17;11.68;;;6.43;;
47523;SDS011;33253;42.144;25.884;2023-05-10T05:30:42;11.43;;;5.22;;
47523;SDS011;33253;42.144;25.884;2023-05-10T05:33:08;12.20;;;5.90;;
47523;SDS011;33253;42.144;25.884;2023-05-10T05:35:33;8.55;;;6.15;;
47523;SDS011;33253;42.144;25.884;2023-05-10T05:37:59;9.82;;;6.05;;
47523;SDS011;33253;42.144;25.884;2023-05-10T05:40:24;7.22;;;5.53;;
47523;SDS011;33253;42.144;25.884;2023-05-10T05:42:50;6.72;;;4.88;;
47523;SDS011;33253;42.144;25.884;2023-05-10T05:45:15;10.50;;;5.57;;
47523;SDS011;33253;42.144;25.884;2023-05-10T05:47:41;10.30;;;5.72;;
47523;SDS011;33253;42.144;25.884;2023-05-10T05:50:06;8.98;;;5.35;;
47523;SDS011;33253;42.144;25.884;2023-05-10T05:52:32;9.90;;;5.30;;
47523;SDS011;33253;42.144;25.884;2023-05-10T05:54:57;11.05;;;5.72;;
47523;SDS011;33253;42.144;25.884;2023-05-10T05:57:23;9.93;;;6.30;;
47523;SDS011;33253;42.144;25.884;2023-05-10T05:59:48;9.88;;;5.50;;
47523;SDS011;33253;42.144;25.884;2023-05-10T06:02:14;11.20;;;5.50;;
47523;SDS011;33253;42.144;25.884;2023-05-10T06:04:39;8.05;;;5.32;;
47523;SDS011;33253;42.144;25.884;2023-05-10T06:07:04;10.48;;;5.40;;
47523;SDS011;33253;42.144;25.884;2023-05-10T06:09:30;8.95;;;5.38;;
47523;SDS011;33253;42.144;25.884;2023-05-10T06:11:56;17.35;;;14.82;;
47523;SDS011;33253;42.144;25.884;2023-05-10T06:14:22;24.92;;;15.38;;
47523;SDS011;33253;42.144;25.884;2023-05-10T06:16:47;11.20;;;6.63;;
47523;SDS011;33253;42.144;25.884;2023-05-10T06:19:13;7.78;;;5.00;;
47523;SDS011;33253;42.144;25.884;2023-05-10T06:21:38;9.75;;;5.43;;
47523;SDS011;33253;42.144;25.884;2023-05-10T06:24:04;11.30;;;5.80;;
47523;SDS011;33253;42.144;25.884;2023-05-10T06:26:31;10.75;;;4.70;;
47523;SDS011;33253;42.144;25.884;2023-05-10T06:28:57;10.68;;;5.60;;
47523;SDS011;33253;42.144;25.884;2023-05-10T06:31:22;9.43;;;5.60;;
47523;SDS011;33253;42.144;25.884;2023-05-10T06:33:48;8.68;;;5.53;;
47523;SDS011;33253;42.144;25.884;2023-05-10T06:36:13;7.30;;;4.80;;
47523;SDS011;33253;42.144;25.884;2023-05-10T06:38:39;9.98;;;4.82;;
47523;SDS011;33253;42.144;25.884;2023-05-10T06:41:04;11.35;;;5.30;;
47523;SDS011;33253;42.144;25.884;2023-05-10T06:43:30;9.98;;;5.15;;
47523;SDS011;33253;42.144;25.884;2023-05-10T06:45:56;9.45;;;5.65;;
47523;SDS011;33253;42.144;25.884;2023-05-10T06:48:22;11.00;;;5.35;;
47523;SDS011;33253;42.144;25.884;2023-05-10T06:50:48;10.75;;;4.95;;
47523;SDS011;33253;42.144;25.884;2023-05-10T06:53:13;10.05;;;5.65;;
47523;SDS011;33253;42.144;25.884;2023-05-10T06:55:39;10.05;;;5.40;;
47523;SDS011;33253;42.144;25.884;2023-05-10T06:58:04;8.48;;;5.13;;
47523;SDS011;33253;42.144;25.884;2023-05-10T07:00:31;10.30;;;3.97;;
47523;SDS011;33253;42.144;25.884;2023-05-10T07:02:56;6.13;;;4.13;;
47523;SDS011;33253;42.144;25.884;2023-05-10T07:05:22;5.88;;;4.13;;
47523;SDS011;33253;42.144;25.884;2023-05-10T07:07:47;7.32;;;4.10;;
47523;SDS011;33253;42.144;25.884;2023-05-10T07:10:13;6.63;;;4.20;;
47523;SDS011;33253;42.144;25.884;2023-05-10T07:12:38;5.90;;;3.88;;
47523;SDS011;33253;42.144;25.884;2023-05-10T07:15:04;9.90;;;4.00;;
47523;SDS011;33253;42.144;25.884;2023-05-10T07:17:31;9.05;;;4.10;;
47523;SDS011;33253;42.144;25.884;2023-05-10T07:19:58;9.63;;;4.13;;
47523;SDS011;33253;42.144;25.884;2023-05-10T07:22:23;8.70;;;4.30;;
47523;SDS011;33253;42.144;25.884;2023-05-10T07:24:49;11.95;;;4.40;;
47523;SDS011;33253;42.144;25.884;2023-05-10T07:27:14;7.07;;;4.30;;
47523;SDS011;33253;42.144;25.884;2023-05-10T07:29:39;9.93;;;3.65;;
47523;SDS011;33253;42.144;25.884;2023-05-10T07:32:05;7.88;;;3.63;;
47523;SDS011;33253;42.144;25.884;2023-05-10T07:34:31;7.65;;;4.05;;
47523;SDS011;33253;42.144;25.884;2023-05-10T07:36:59;6.97;;;3.78;;
47523;SDS011;33253;42.144;25.884;2023-05-10T07:39:26;5.72;;;3.63;;
47523;SDS011;33253;42.144;25.884;2023-05-10T07:41:52;11.88;;;4.00;;
47523;SDS011;33253;42.144;25.884;2023-05-10T07:44:17;6.53;;;3.47;;
47523;SDS011;33253;42.144;25.884;2023-05-10T07:46:44;6.53;;;3.60;;
47523;SDS011;33253;42.144;25.884;2023-05-10T07:49:09;9.15;;;4.25;;
47523;SDS011;33253;42.144;25.884;2023-05-10T07:51:36;5.40;;;3.63;;
47523;SDS011;33253;42.144;25.884;2023-05-10T07:54:01;8.73;;;3.75;;
47523;SDS011;33253;42.144;25.884;2023-05-10T07:56:28;8.43;;;4.00;;
47523;SDS011;33253;42.144;25.884;2023-05-10T08:01:23;8.02;;;3.75;;
47523;SDS011;33253;42.144;25.884;2023-05-10T08:03:49;5.50;;;3.47;;
47523;SDS011;33253;42.144;25.884;2023-05-10T08:06:16;7.43;;;3.92;;
47523;SDS011;33253;42.144;25.884;2023-05-10T08:08:42;8.25;;;3.70;;
47523;SDS011;33253;42.144;25.884;2023-05-10T08:11:08;4.85;;;3.42;;
47523;SDS011;33253;42.144;25.884;2023-05-10T08:13:33;8.20;;;3.72;;
47523;SDS011;33253;42.144;25.884;2023-05-10T08:16:00;7.13;;;3.63;;
47523;SDS011;33253;42.144;25.884;2023-05-10T08:18:25;7.13;;;3.42;;
47523;SDS011;33253;42.144;25.884;2023-05-10T08:20:51;5.80;;;3.55;;
47523;SDS011;33253;42.144;25.884;2023-05-10T08:23:16;9.32;;;3.20;;
47523;SDS011;33253;42.144;25.884;2023-05-10T08:25:42;5.70;;;3.60;;
47523;SDS011;33253;42.144;25.884;2023-05-10T08:28:07;8.00;;;3.50;;
47523;SDS011;33253;42.144;25.884;2023-05-10T08:30:33;6.95;;;3.67;;
47523;SDS011;33253;42.144;25.884;2023-05-10T08:32:58;5.63;;;3.50;;
47523;SDS011;33253;42.144;25.884;2023-05-10T08:35:24;15.18;;;3.28;;
47523;SDS011;33253;42.144;25.884;2023-05-10T08:37:50;7.22;;;3.30;;
47523;SDS011;33253;42.144;25.884;2023-05-10T08:40:16;8.93;;;3.38;;
47523;SDS011;33253;42.144;25.884;2023-05-10T08:42:47;5.22;;;3.33;;
47523;SDS011;33253;42.144;25.884;2023-05-10T08:45:23;9.90;;;3.00;;
47523;SDS011;33253;42.144;25.884;2023-05-10T08:47:49;9.40;;;4.00;;
47523;SDS011;33253;42.144;25.884;2023-05-10T08:50:17;6.35;;;3.38;;
47523;SDS011;33253;42.144;25.884;2023-05-10T08:52:45;4.82;;;2.90;;
47523;SDS011;33253;42.144;25.884;2023-05-10T08:55:13;8.80;;;3.28;;
47523;SDS011;33253;42.144;25.884;2023-05-10T08:57:39;4.95;;;2.88;;
47523;SDS011;33253;42.144;25.884;2023-05-10T09:00:04;4.45;;;2.50;;
47523;SDS011;33253;42.144;25.884;2023-05-10T09:02:30;7.38;;;2.78;;
47523;SDS011;33253;42.144;25.884;2023-05-10T09:04:56;9.45;;;3.22;;
47523;SDS011;33253;42.144;25.884;2023-05-10T09:07:21;12.48;;;3.33;;
47523;SDS011;33253;42.144;25.884;2023-05-10T09:09:47;7.55;;;3.40;;
47523;SDS011;33253;42.144;25.884;2023-05-10T09:12:13;4.80;;;2.72;;
47523;SDS011;33253;42.144;25.884;2023-05-10T09:14:59;4.25;;;2.80;;
47523;SDS011;33253;42.144;25.884;2023-05-10T09:17:25;10.48;;;3.28;;
47523;SDS011;33253;42.144;25.884;2023-05-10T09:20:01;3.80;;;2.75;;
47523;SDS011;33253;42.144;25.884;2023-05-10T09:22:32;4.00;;;2.50;;
47523;SDS011;33253;42.144;25.884;2023-05-10T09:25:08;6.15;;;2.70;;
47523;SDS011;33253;42.144;25.884;2023-05-10T09:27:38;5.78;;;3.25;;
47523;SDS011;33253;42.144;25.884;2023-05-10T09:30:05;6.03;;;2.90;;
47523;SDS011;33253;42.144;25.884;2023-05-10T09:32:35;6.47;;;2.85;;
47523;SDS011;33253;42.144;25.884;2023-05-10T09:35:08;6.35;;;2.70;;
47523;SDS011;33253;42.144;25.884;2023-05-10T09:37:41;6.15;;;2.40;;
47523;SDS011;33253;42.144;25.884;2023-05-10T09:40:11;7.60;;;2.78;;
47523;SDS011;33253;42.144;25.884;2023-05-10T09:42:38;5.47;;;2.60;;
47523;SDS011;33253;42.144;25.884;2023-05-10T09:45:05;6.72;;;2.83;;
47523;SDS011;33253;42.144;25.884;2023-05-10T09:47:32;5.28;;;2.78;;
47523;SDS011;33253;42.144;25.884;2023-05-10T09:50:19;4.57;;;2.78;;
47523;SDS011;33253;42.144;25.884;2023-05-10T09:52:55;3.75;;;2.40;;
47523;SDS011;33253;42.144;25.884;2023-05-10T09:55:40;4.95;;;2.72;;
47523;SDS011;33253;42.144;25.884;2023-05-10T09:58:09;4.60;;;3.00;;
47523;SDS011;33253;42.144;25.884;2023-05-10T10:00:36;4.80;;;2.85;;
47523;SDS011;33253;42.144;25.884;2023-05-10T10:03:03;3.60;;;2.40;;
47523;SDS011;33253;42.144;25.884;2023-05-10T10:05:35;5.45;;;3.28;;
47523;SDS011;33253;42.144;25.884;2023-05-10T10:08:03;5.00;;;2.85;;
47523;SDS011;33253;42.144;25.884;2023-05-10T10:10:30;5.50;;;2.47;;
47523;SDS011;33253;42.144;25.884;2023-05-10T10:12:57;6.35;;;2.65;;
47523;SDS011;33253;42.144;25.884;2023-05-10T10:15:23;6.55;;;2.67;;
47523;SDS011;33253;42.144;25.884;2023-05-10T10:17:49;6.82;;;2.78;;
47523;SDS011;33253;42.144;25.884;2023-05-10T10:20:16;4.38;;;2.58;;
47523;SDS011;33253;42.144;25.884;2023-05-10T10:22:43;4.43;;;2.75;;
47523;SDS011;33253;42.144;25.884;2023-05-10T10:25:10;5.13;;;2.78;;
47523;SDS011;33253;42.144;25.884;2023-05-10T10:30:23;4.35;;;2.58;;
47523;SDS011;33253;42.144;25.884;2023-05-10T10:35:31;6.43;;;2.40;;
47523;SDS011;33253;42.144;25.884;2023-05-10T10:37:58;2.88;;;2.17;;
47523;SDS011;33253;42.144;25.884;2023-05-10T10:40:24;4.82;;;2.67;;
47523;SDS011;33253;42.144;25.884;2023-05-10T10:42:53;7.18;;;2.75;;
47523;SDS011;33253;42.144;25.884;2023-05-10T10:45:20;5.10;;;2.60;;
47523;SDS011;33253;42.144;25.884;2023-05-10T10:47:46;6.82;;;2.50;;
47523;SDS011;33253;42.144;25.884;2023-05-10T10:50:12;5.03;;;2.60;;
47523;SDS011;33253;42.144;25.884;2023-05-10T10:55:14;2.60;;;1.83;;
47523;SDS011;33253;42.144;25.884;2023-05-10T11:02:51;7.88;;;2.22;;
47523;SDS011;33253;42.144;25.884;2023-05-10T11:05:39;4.80;;;2.10;;
47523;SDS011;33253;42.144;25.884;2023-05-10T11:10:48;3.67;;;1.98;;
47523;SDS011;33253;42.144;25.884;2023-05-10T11:13:38;3.15;;;1.95;;
47523;SDS011;33253;42.144;25.884;2023-05-10T11:16:19;4.60;;;1.90;;
47523;SDS011;33253;42.144;25.884;2023-05-10T11:18:52;5.22;;;1.90;;
47523;SDS011;33253;42.144;25.884;2023-05-10T11:21:18;7.50;;;2.08;;
47523;SDS011;33253;42.144;25.884;2023-05-10T11:23:52;5.00;;;2.45;;
47523;SDS011;33253;42.144;25.884;2023-05-10T11:26:21;2.90;;;2.10;;
47523;SDS011;33253;42.144;25.884;2023-05-10T11:28:50;2.60;;;2.03;;
47523;SDS011;33253;42.144;25.884;2023-05-10T11:31:18;2.13;;;1.52;;
47523;SDS011;33253;42.144;25.884;2023-05-10T11:33:51;4.40;;;2.10;;
47523;SDS011;33253;42.144;25.884;2023-05-10T11:36:19;4.78;;;2.25;;
47523;SDS011;33253;42.144;25.884;2023-05-10T11:38:56;3.83;;;2.03;;
47523;SDS011;33253;42.144;25.884;2023-05-10T11:41:22;4.40;;;1.90;;
47523;SDS011;33253;42.144;25.884;2023-05-10T11:43:52;3.20;;;2.00;;
47523;SDS011;33253;42.144;25.884;2023-05-10T11:46:23;7.45;;;2.08;;
47523;SDS011;33253;42.144;25.884;2023-05-10T11:48:51;4.53;;;2.53;;
47523;SDS011;33253;42.144;25.884;2023-05-10T11:51:22;7.10;;;2.38;;
47523;SDS011;33253;42.144;25.884;2023-05-10T14:15:43;3.65;;;2.33;;
47523;SDS011;33253;42.144;25.884;2023-05-10T14:18:08;7.13;;;2.72;;
47523;SDS011;33253;42.144;25.884;2023-05-10T14:20:34;5.88;;;2.75;;
47523;SDS011;33253;42.144;25.884;2023-05-10T14:22:59;4.65;;;2.42;;
47523;SDS011;33253;42.144;25.884;2023-05-10T14:25:25;3.35;;;2.38;;
47523;SDS011;33253;42.144;25.884;2023-05-10T14:27:50;5.22;;;2.33;;
47523;SDS011;33253;42.144;25.884;2023-05-10T14:30:19;3.35;;;2.60;;
47523;SDS011;33253;42.144;25.884;2023-05-10T14:32:44;4.07;;;2.60;;
47523;SDS011;33253;42.144;25.884;2023-05-10T14:35:10;5.20;;;2.75;;
47523;SDS011;33253;42.144;25.884;2023-05-10T14:37:38;4.40;;;2.70;;
47523;SDS011;33253;42.144;25.884;2023-05-10T14:40:03;3.28;;;2.25;;
47523;SDS011;33253;42.144;25.884;2023-05-10T14:42:29;6.70;;;2.78;;
47523;SDS011;33253;42.144;25.884;2023-05-10T14:44:55;4.35;;;2.70;;
47523;SDS011;33253;42.144;25.884;2023-05-10T14:47:21;6.05;;;2.17;;
47523;SDS011;33253;42.144;25.884;2023-05-10T14:49:46;3.08;;;2.20;;
47523;SDS011;33253;42.144;25.884;2023-05-10T14:52:12;9.38;;;2.97;;
47523;SDS011;33253;42.144;25.884;2023-05-10T14:54:39;7.38;;;2.58;;
47523;SDS011;33253;42.144;25.884;2023-05-10T14:57:05;3.75;;;2.40;;
47523;SDS011;33253;42.144;25.884;2023-05-10T14:59:31;6.60;;;2.55;;
47523;SDS011;33253;42.144;25.884;2023-05-10T15:01:58;7.63;;;2.50;;
47523;SDS011;33253;42.144;25.884;2023-05-10T15:04:24;4.65;;;2.45;;
47523;SDS011;33253;42.144;25.884;2023-05-10T15:06:50;4.10;;;2.65;;
47523;SDS011;33253;42.144;25.884;2023-05-10T15:09:15;6.38;;;2.47;;
47523;SDS011;33253;42.144;25.884;2023-05-10T15:11:41;5.22;;;2.90;;
47523;SDS011;33253;42.144;25.884;2023-05-10T15:14:07;7.88;;;3.03;;
47523;SDS011;33253;42.144;25.884;2023-05-10T15:16:32;5.38;;;2.63;;
47523;SDS011;33253;42.144;25.884;2023-05-10T15:18:58;3.40;;;2.20;;
47523;SDS011;33253;42.144;25.884;2023-05-10T15:21:23;3.42;;;2.28;;
47523;SDS011;33253;42.144;25.884;2023-05-10T15:23:48;3.30;;;2.50;;
47523;SDS011;33253;42.144;25.884;2023-05-10T15:26:14;3.65;;;2.40;;
47523;SDS011;33253;42.144;25.884;2023-05-10T15:28:39;3.47;;;2.15;;
47523;SDS011;33253;42.144;25.884;2023-05-10T15:31:05;3.83;;;2.45;;
47523;SDS011;33253;42.144;25.884;2023-05-10T15:33:30;3.10;;;2.20;;
47523;SDS011;33253;42.144;25.884;2023-05-10T15:35:56;3.33;;;2.20;;
47523;SDS011;33253;42.144;25.884;2023-05-10T15:38:24;4.15;;;2.50;;
47523;SDS011;33253;42.144;25.884;2023-05-10T15:40:50;5.45;;;2.45;;
47523;SDS011;33253;42.144;25.884;2023-05-10T15:43:15;7.05;;;2.42;;
47523;SDS011;33253;42.144;25.884;2023-05-10T15:45:41;5.50;;;2.30;;
47523;SDS011;33253;42.144;25.884;2023-05-10T15:48:06;4.32;;;2.60;;
47523;SDS011;33253;42.144;25.884;2023-05-10T15:50:32;7.85;;;3.22;;
47523;SDS011;33253;42.144;25.884;2023-05-10T15:52:57;4.50;;;2.28;;
47523;SDS011;33253;42.144;25.884;2023-05-10T15:55:23;3.45;;;2.47;;
47523;SDS011;33253;42.144;25.884;2023-05-10T15:57:49;4.22;;;2.33;;
47523;SDS011;33253;42.144;25.884;2023-05-10T16:00:15;7.15;;;3.15;;
47523;SDS011;33253;42.144;25.884;2023-05-10T16:02:41;3.35;;;2.33;;
47523;SDS011;33253;42.144;25.884;2023-05-10T16:05:07;4.75;;;2.40;;
47523;SDS011;33253;42.144;25.884;2023-05-10T16:07:35;3.83;;;2.15;;
47523;SDS011;33253;42.144;25.884;2023-05-10T16:10:02;3.63;;;2.20;;
47523;SDS011;33253;42.144;25.884;2023-05-10T16:12:30;7.10;;;2.50;;
47523;SDS011;33253;42.144;25.884;2023-05-10T16:14:55;3.95;;;2.90;;
47523;SDS011;33253;42.144;25.884;2023-05-10T16:17:21;5.90;;;2.80;;
47523;SDS011;33253;42.144;25.884;2023-05-10T16:19:46;6.88;;;2.67;;
47523;SDS011;33253;42.144;25.884;2023-05-10T16:22:12;5.88;;;2.28;;
47523;SDS011;33253;42.144;25.884;2023-05-10T16:24:38;3.28;;;2.13;;
47523;SDS011;33253;42.144;25.884;2023-05-10T16:27:03;3.90;;;2.60;;
47523;SDS011;33253;42.144;25.884;2023-05-10T16:29:29;4.90;;;2.70;;
47523;SDS011;33253;42.144;25.884;2023-05-10T16:31:55;5.13;;;2.58;;
47523;SDS011;33253;42.144;25.884;2023-05-10T16:34:21;4.47;;;2.60;;
47523;SDS011;33253;42.144;25.884;2023-05-10T16:36:48;5.68;;;2.50;;
47523;SDS011;33253;42.144;25.884;2023-05-10T16:39:14;4.43;;;2.40;;
47523;SDS011;33253;42.144;25.884;2023-05-10T16:41:41;3.60;;;2.55;;
47523;SDS011;33253;42.144;25.884;2023-05-10T16:44:06;5.20;;;2.70;;
47523;SDS011;33253;42.144;25.884;2023-05-10T16:46:32;4.80;;;2.60;;
47523;SDS011;33253;42.144;25.884;2023-05-10T16:48:58;4.80;;;2.72;;
47523;SDS011;33253;42.144;25.884;2023-05-10T16:51:24;5.43;;;2.75;;
47523;SDS011;33253;42.144;25.884;2023-05-10T16:53:52;4.15;;;2.67;;
47523;SDS011;33253;42.144;25.884;2023-05-10T16:56:17;3.67;;;2.58;;
47523;SDS011;33253;42.144;25.884;2023-05-10T16:58:46;4.10;;;2.90;;
47523;SDS011;33253;42.144;25.884;2023-05-10T17:01:14;5.38;;;3.42;;
47523;SDS011;33253;42.144;25.884;2023-05-10T17:03:39;9.25;;;3.25;;
47523;SDS011;33253;42.144;25.884;2023-05-10T17:06:05;4.68;;;2.80;;
47523;SDS011;33253;42.144;25.884;2023-05-10T17:08:33;4.00;;;2.70;;
47523;SDS011;33253;42.144;25.884;2023-05-10T17:11:02;3.20;;;2.50;;
47523;SDS011;33253;42.144;25.884;2023-05-10T17:13:28;3.28;;;2.65;;
47523;SDS011;33253;42.144;25.884;2023-05-10T17:15:57;7.00;;;2.72;;
47523;SDS011;33253;42.144;25.884;2023-05-10T17:18:31;6.80;;;2.90;;
47523;SDS011;33253;42.144;25.884;2023-05-10T17:20:56;6.95;;;2.97;;
47523;SDS011;33253;42.144;25.884;2023-05-10T17:23:22;10.13;;;3.22;;
47523;SDS011;33253;42.144;25.884;2023-05-10T17:25:47;7.30;;;3.00;;
47523;SDS011;33253;42.144;25.884;2023-05-10T17:28:13;7.65;;;3.05;;
47523;SDS011;33253;42.144;25.884;2023-05-10T17:30:38;10.13;;;3.10;;
47523;SDS011;33253;42.144;25.884;2023-05-10T17:33:04;9.60;;;3.30;;
47523;SDS011;33253;42.144;25.884;2023-05-10T17:35:29;12.95;;;3.00;;